createdAt,value
2019-04-07T00:14:00.388Z,15.20
2019-04-07T00:44:02.997Z,15.10
2019-04-07T01:14:08.287Z,14.40
2019-04-07T01:44:11.294Z,14.30
2019-04-07T02:14:13.905Z,14.00
2019-04-07T02:44:16.557Z,13.70
2019-04-07T03:14:19.735Z,13.70
2019-04-07T03:44:22.588Z,13.10
2019-04-07T04:14:29.350Z,12.20
2019-04-07T04:44:32.186Z,12.30
2019-04-07T05:14:34.796Z,12.50
2019-04-07T05:44:37.472Z,12.60
2019-04-07T06:14:43.839Z,12.90
2019-04-07T06:44:50.338Z,13.50
2019-04-07T07:14:51.732Z,14.00
2019-04-07T07:44:54.381Z,14.40
2019-04-07T08:14:58.325Z,14.90
2019-04-07T08:45:01.602Z,15.60
2019-04-07T09:15:05.275Z,16.50
2019-04-07T09:45:09.883Z,17.30
2019-04-07T10:15:12.968Z,18.40
2019-04-07T10:45:16.159Z,19.50
2019-04-07T11:15:22.367Z,21.00
2019-04-07T11:45:25.401Z,21.90
2019-04-07T12:15:29.986Z,22.30
2019-04-07T12:45:34.748Z,23.20
2019-04-07T13:15:42.062Z,23.20
2019-04-07T13:45:46.362Z,24.90
2019-04-07T14:15:48.514Z,24.10
2019-04-07T14:45:51.552Z,26.10
2019-04-07T15:15:54.269Z,25.90
2019-04-07T15:45:56.919Z,27.60
2019-04-07T16:15:59.675Z,25.60
2019-04-07T16:46:02.273Z,25.90
2019-04-07T17:16:05.810Z,25.20
2019-04-07T17:46:08.505Z,24.00
2019-04-07T18:16:12.244Z,22.60
2019-04-07T18:46:16.842Z,20.80
2019-04-07T19:16:21.720Z,19.90
2019-04-07T19:46:26.439Z,19.40
2019-04-07T20:16:28.340Z,19.20
2019-04-07T20:46:39.915Z,18.60
2019-04-07T21:16:43.237Z,18.20
2019-04-07T21:46:46.424Z,17.00
2019-04-07T22:16:49.365Z,17.10
2019-04-07T22:46:52.328Z,16.90
2019-04-07T23:16:55.111Z,16.60
2019-04-07T23:46:57.732Z,16.20
